createdAt,value
2018-09-04T00:00:30.212Z,32.7
2018-09-04T00:01:20.851Z,32.7
2018-09-04T00:02:10.590Z,32.7
2018-09-04T00:03:00.758Z,32.7
2018-09-04T00:03:50.848Z,32.7
2018-09-04T00:04:41.640Z,32.7
2018-09-04T00:05:31.496Z,32.7
2018-09-04T00:06:21.285Z,32.7
2018-09-04T00:07:11.325Z,32.7
2018-09-04T00:08:01.375Z,32.7
2018-09-04T00:08:51.952Z,32.7
2018-09-04T00:09:41.550Z,32.7
2018-09-04T00:10:31.932Z,32.6
2018-09-04T00:11:21.638Z,32.7
2018-09-04T00:12:11.993Z,32.6
2018-09-04T00:31:43.174Z,32.6
2018-09-04T00:32:33.623Z,32.6
2018-09-04T00:33:23.042Z,32.6
2018-09-04T00:34:13.784Z,32.6
2018-09-04T00:35:03.764Z,32.6
2018-09-04T00:35:53.503Z,32.6
2018-09-04T00:36:43.346Z,32.6
2018-09-04T00:37:33.083Z,32.6
2018-09-04T00:38:23.968Z,32.6
2018-09-04T00:39:14.339Z,32.6
2018-09-04T00:40:03.835Z,32.5
2018-09-04T00:40:54.171Z,32.6
2018-09-04T00:41:44.776Z,32.5
2018-09-04T00:42:34.368Z,32.6
2018-09-04T00:43:24.644Z,32.5
2018-09-04T00:44:13.530Z,32.6
2018-09-04T00:45:04.527Z,32.5
2018-09-04T00:45:54.268Z,32.5
2018-09-04T00:46:44.428Z,32.5
2018-09-04T00:47:34.694Z,32.5
2018-09-04T00:48:23.870Z,32.5
2018-09-04T00:49:14.274Z,32.5
2018-09-04T00:50:04.340Z,32.5
2018-09-04T00:50:54.077Z,32.5
2018-09-04T00:51:44.967Z,32.5
2018-09-04T00:52:34.298Z,32.5
2018-09-04T00:53:24.592Z,32.4
2018-09-04T00:54:14.915Z,32.4
2018-09-04T00:55:04.893Z,32.4
2018-09-04T00:55:54.850Z,32.4
2018-09-04T00:56:44.692Z,32.4
2018-09-04T00:57:35.432Z,32.4
2018-09-04T00:58:25.278Z,32.4
2018-09-04T00:59:15.053Z,32.4
2018-09-04T01:00:05.787Z,32.4
2018-09-04T01:00:55.728Z,32.4
2018-09-04T01:01:45.798Z,32.4
2018-09-04T01:02:35.277Z,32.4
2018-09-04T01:03:25.932Z,32.4
2018-09-04T01:04:15.094Z,32.4
2018-09-04T01:05:06.045Z,32.4
2018-09-04T01:05:55.537Z,32.4
2018-09-04T01:06:46.172Z,32.4
2018-09-04T01:07:36.622Z,32.4
2018-09-04T01:08:25.737Z,32.4
2018-09-04T01:09:15.844Z,32.4
2018-09-04T01:10:06.694Z,32.4
2018-09-04T01:10:56.203Z,32.4
2018-09-04T01:11:46.605Z,32.4
2018-09-04T01:12:36.259Z,32.4
2018-09-04T01:13:26.449Z,32.4
2018-09-04T01:14:17.056Z,32.4
2018-09-04T01:15:06.834Z,32.4
2018-09-04T01:15:56.019Z,32.4
2018-09-04T01:16:46.646Z,32.4
2018-09-04T01:17:37.044Z,32.4
2018-09-04T01:18:27.355Z,32.4
2018-09-04T01:19:16.948Z,32.4
2018-09-04T01:20:07.529Z,32.4
2018-09-04T01:20:56.974Z,32.3
2018-09-04T01:21:47.342Z,32.4
2018-09-04T01:22:37.938Z,32.3
2018-09-04T01:23:27.255Z,32.3
2018-09-04T01:24:17.543Z,32.4
2018-09-04T01:25:07.857Z,32.3
2018-09-04T01:25:56.780Z,32.3
2018-09-04T01:26:47.137Z,32.3
2018-09-04T01:27:37.760Z,32.3
2018-09-04T01:28:27.650Z,32.3
2018-09-04T01:29:18.217Z,32.3
2018-09-04T01:30:08.543Z,32.3
2018-09-04T01:30:57.766Z,32.3
2018-09-04T01:31:47.568Z,32.3
2018-09-04T01:32:37.962Z,32.3
2018-09-04T01:33:28.503Z,32.3
2018-09-04T01:34:18.301Z,32.3
2018-09-04T01:35:08.363Z,32.3
2018-09-04T01:35:58.422Z,32.3
2018-09-04T01:36:47.935Z,32.3
2018-09-04T01:37:38.564Z,32.3
2018-09-04T01:38:28.049Z,32.3
2018-09-04T01:39:18.632Z,32.3
2018-09-04T01:40:09.082Z,32.3
2018-09-04T01:40:58.269Z,32.3
2018-09-04T01:41:48.609Z,32.3
2018-09-04T01:42:39.032Z,32.3
2018-09-04T01:43:28.179Z,32.3
2018-09-04T01:44:18.559Z,32.3
2018-09-04T01:45:08.862Z,32.3
2018-09-04T01:45:58.909Z,32.3
2018-09-04T01:46:49.537Z,32.3
2018-09-04T01:47:38.752Z,32.2
2018-09-04T01:48:29.674Z,32.3
2018-09-04T01:49:19.157Z,32.3
2018-09-04T01:50:09.547Z,32.3
2018-09-04T01:50:59.839Z,32.3
2018-09-04T01:51:49.669Z,32.2
2018-09-04T01:52:39.716Z,32.3
2018-09-04T01:53:30.078Z,32.3
2018-09-04T01:54:20.089Z,32.2
2018-09-04T01:55:09.637Z,32.2
2018-09-04T01:55:59.670Z,32.3
2018-09-04T01:56:50.050Z,32.2
2018-09-04T01:57:39.249Z,32.2
2018-09-04T01:58:30.749Z,32.2
2018-09-04T01:59:19.653Z,32.2
2018-09-04T02:00:09.160Z,32.2
2018-09-04T02:01:00.046Z,32.2
2018-09-04T02:01:49.853Z,32.2
2018-09-04T02:02:40.486Z,32.2
2018-09-04T02:03:30.324Z,32.2
2018-09-04T02:04:20.043Z,32.2
2018-09-04T02:05:10.986Z,32.2
2018-09-04T02:06:01.054Z,32.2
2018-09-04T02:06:50.533Z,32.2
2018-09-04T02:07:40.601Z,32.2
2018-09-04T02:08:30.320Z,32.2
2018-09-04T02:09:20.993Z,32.2
2018-09-04T02:10:10.796Z,32.2
2018-09-04T02:11:01.430Z,32.2
2018-09-04T02:11:51.468Z,32.1
2018-09-04T02:12:40.960Z,32.1
2018-09-04T02:13:31.288Z,32.2
2018-09-04T02:14:21.467Z,32.1
2018-09-04T02:15:11.136Z,32.1
2018-09-04T02:16:01.540Z,32.1
2018-09-04T02:16:52.145Z,32.1
2018-09-04T02:17:41.365Z,32.1
2018-09-04T02:18:31.090Z,32.1
2018-09-04T02:19:21.783Z,32.1
2018-09-04T02:20:11.818Z,32.1
2018-09-04T02:21:01.680Z,32.1
2018-09-04T02:21:51.098Z,32.1
2018-09-04T02:22:41.469Z,32.1
2018-09-04T02:23:31.509Z,32.1
2018-09-04T02:24:21.582Z,32.1
2018-09-04T02:25:12.274Z,32.1
2018-09-04T02:26:02.041Z,32.1
2018-09-04T02:26:51.777Z,32.1
2018-09-04T02:27:42.439Z,32.1
2018-09-04T02:28:32.484Z,32.1
2018-09-04T02:29:22.529Z,32.1
2018-09-04T02:30:12.363Z,32.1
2018-09-04T02:31:02.116Z,32.1
2018-09-04T02:31:52.290Z,32.1
2018-09-04T02:32:42.273Z,32.1
2018-09-04T02:33:32.609Z,32.1
2018-09-04T02:34:22.308Z,32.1
2018-09-04T02:35:12.770Z,32.1
2018-09-04T02:36:02.536Z,32.1
2018-09-04T02:36:53.214Z,32.1
2018-09-04T02:37:42.177Z,32.1
2018-09-04T02:38:33.297Z,32.1
2018-09-04T02:39:23.314Z,32
2018-09-04T02:40:13.109Z,32.1
2018-09-04T02:41:03.488Z,32
2018-09-04T02:41:53.540Z,32.1
2018-09-04T02:42:43.008Z,32.1
2018-09-04T02:43:33.669Z,32.1
2018-09-04T02:44:23.974Z,32
2018-09-04T02:45:13.793Z,32
2018-09-04T02:46:03.508Z,32
2018-09-04T02:46:53.920Z,32
2018-09-04T02:47:43.693Z,32
2018-09-04T02:48:34.358Z,32
2018-09-04T02:49:24.098Z,32
2018-09-04T02:50:14.075Z,32
2018-09-04T02:51:04.203Z,32
2018-09-04T02:51:54.291Z,32
2018-09-04T02:52:44.918Z,32
2018-09-04T02:53:33.850Z,32
2018-09-04T02:54:23.968Z,32
2018-09-04T02:55:14.470Z,32
2018-09-04T02:56:04.618Z,32
2018-09-04T02:56:54.668Z,32
2018-09-04T02:57:44.719Z,32
2018-09-04T02:58:33.937Z,31.9
2018-09-04T02:59:24.892Z,31.9
2018-09-04T03:00:15.417Z,31.9
2018-09-04T03:01:05.321Z,32
2018-09-04T03:01:54.828Z,31.9
2018-09-04T03:02:44.857Z,31.9
2018-09-04T03:03:35.203Z,31.9
2018-09-04T03:04:25.592Z,31.9
2018-09-04T03:05:15.785Z,31.9
2018-09-04T03:06:04.825Z,31.9
2018-09-04T03:06:55.437Z,31.9
2018-09-04T03:07:45.525Z,31.9
2018-09-04T03:08:34.996Z,31.9
2018-09-04T03:09:25.052Z,31.9
2018-09-04T03:10:15.094Z,31.9
2018-09-04T03:11:06.033Z,31.9
2018-09-04T03:11:56.194Z,31.9
2018-09-04T03:12:45.631Z,31.9
2018-09-04T03:13:37.826Z,31.9
2018-09-04T03:14:25.762Z,31.9
2018-09-04T03:15:15.544Z,31.9
2018-09-04T03:16:05.596Z,31.9
2018-09-04T03:16:55.654Z,31.9
2018-09-04T03:17:46.344Z,31.9
2018-09-04T03:18:36.301Z,31.9
2018-09-04T03:19:26.137Z,31.9
2018-09-04T03:20:16.745Z,31.9
2018-09-04T03:21:06.256Z,31.9
2018-09-04T03:21:55.843Z,31.9
2018-09-04T03:22:46.700Z,31.9
2018-09-04T03:23:36.451Z,31.9
2018-09-04T03:24:27.153Z,31.9
2018-09-04T03:25:17.857Z,31.9
2018-09-04T03:26:06.710Z,31.9
2018-09-04T03:26:57.001Z,31.9
2018-09-04T03:27:46.815Z,31.9
2018-09-04T03:28:37.094Z,31.9
2018-09-04T03:29:26.950Z,31.9
2018-09-04T03:30:17.583Z,31.8
2018-09-04T03:31:07.966Z,31.8
2018-09-04T03:31:56.855Z,31.8
2018-09-04T03:32:46.883Z,31.8
2018-09-04T03:33:36.945Z,31.8
2018-09-04T03:34:28.135Z,31.8
2018-09-04T03:35:17.897Z,31.8
2018-09-04T03:36:07.318Z,31.8
2018-09-04T03:36:57.758Z,31.8
2018-09-04T03:37:47.535Z,31.8
2018-09-04T03:38:38.147Z,31.8
2018-09-04T03:39:27.419Z,31.8
2018-09-04T03:40:18.025Z,31.8
2018-09-04T03:41:08.022Z,31.8
2018-09-04T03:41:57.973Z,31.8
2018-09-04T03:42:48.260Z,31.8
2018-09-04T03:43:38.296Z,31.8
2018-09-04T03:44:27.889Z,31.8
2018-09-04T03:45:18.450Z,31.8
2018-09-04T03:46:07.976Z,31.8
2018-09-04T03:46:58.965Z,31.8
2018-09-04T03:47:48.032Z,31.8
2018-09-04T03:48:38.674Z,31.8
2018-09-04T03:49:28.383Z,31.8
2018-09-04T03:50:18.491Z,31.8
2018-09-04T03:51:08.021Z,31.8
2018-09-04T03:51:58.932Z,31.8
2018-09-04T03:52:48.979Z,31.8
2018-09-04T03:53:38.771Z,31.8
2018-09-04T03:54:29.141Z,31.8
2018-09-04T03:55:18.900Z,31.8
2018-09-04T03:56:09.827Z,31.8
2018-09-04T03:56:59.566Z,31.8
2018-09-04T03:57:49.391Z,31.8
2018-09-04T03:58:39.537Z,31.8
2018-09-04T03:59:29.824Z,31.8
2018-09-04T04:00:18.673Z,31.8
2018-09-04T04:01:09.459Z,31.8
2018-09-04T04:01:59.448Z,31.8
2018-09-04T04:02:49.176Z,31.8
2018-09-04T04:03:39.271Z,31.7
2018-09-04T04:04:30.218Z,31.8
2018-09-04T04:05:19.951Z,31.7
2018-09-04T04:06:09.918Z,31.7
2018-09-04T04:07:00.063Z,31.7
2018-09-04T04:07:49.896Z,31.7
2018-09-04T04:08:39.630Z,31.7
2018-09-04T04:09:30.301Z,31.7
2018-09-04T04:10:19.783Z,31.7
2018-09-04T04:11:10.688Z,31.7
2018-09-04T04:12:01.259Z,31.7
2018-09-04T04:12:50.257Z,31.7
2018-09-04T04:13:40.325Z,31.7
2018-09-04T04:14:30.408Z,31.7
2018-09-04T04:15:20.425Z,31.7
2018-09-04T04:16:11.345Z,31.7
2018-09-04T04:17:00.215Z,31.6
2018-09-04T04:17:50.315Z,31.7
2018-09-04T04:18:41.267Z,31.7
2018-09-04T04:19:31.330Z,31.6
2018-09-04T04:20:21.666Z,31.7
2018-09-04T04:21:11.159Z,31.6
2018-09-04T04:22:00.937Z,31.7
2018-09-04T04:22:51.305Z,31.6
2018-09-04T04:23:41.159Z,31.6
2018-09-04T04:24:31.444Z,31.6
2018-09-04T04:25:20.634Z,31.6
2018-09-04T04:26:11.604Z,31.6
2018-09-04T04:27:02.112Z,31.6
2018-09-04T04:27:51.407Z,31.6
2018-09-04T04:28:41.754Z,31.6
2018-09-04T04:29:31.206Z,31.6
2018-09-04T04:30:22.154Z,31.6
2018-09-04T04:31:12.179Z,31.6
2018-09-04T04:32:02.066Z,31.6
2018-09-04T04:32:51.413Z,31.6
2018-09-04T04:33:42.451Z,31.6
2018-09-04T04:34:31.916Z,31.6
2018-09-04T04:35:22.514Z,31.6
2018-09-04T04:36:12.615Z,31.6
2018-09-04T04:37:01.833Z,31.6
2018-09-04T04:37:52.438Z,31.6
2018-09-04T04:38:42.549Z,31.6
2018-09-04T04:39:32.311Z,31.6
2018-09-04T04:40:22.083Z,31.6
2018-09-04T04:41:13.065Z,31.6
2018-09-04T04:42:02.524Z,31.6
2018-09-04T04:42:52.248Z,31.6
2018-09-04T05:00:32.863Z,31.5
2018-09-04T05:01:20.777Z,31.5
2018-09-04T05:02:11.445Z,31.5
2018-09-04T05:03:02.083Z,31.5
2018-09-04T05:03:51.012Z,31.5
2018-09-04T05:04:41.345Z,31.5
2018-09-04T05:05:32.339Z,31.6
2018-09-04T05:06:22.049Z,31.5
2018-09-04T05:07:11.534Z,31.5
2018-09-04T05:08:01.602Z,31.5
2018-09-04T05:08:51.919Z,31.5
2018-09-04T05:09:42.020Z,31.5
2018-09-04T05:10:31.489Z,31.5
2018-09-04T05:11:23.345Z,31.5
2018-09-04T05:12:12.485Z,31.5
2018-09-04T05:13:02.281Z,31.5
2018-09-04T05:13:52.101Z,31.5
2018-09-04T05:14:42.401Z,31.4
2018-09-04T05:15:32.476Z,31.4
2018-09-04T05:16:22.567Z,31.5
2018-09-04T05:17:12.018Z,31.4
2018-09-04T05:18:02.688Z,31.5
2018-09-04T05:18:52.501Z,31.4
2018-09-04T05:19:42.601Z,31.4
2018-09-04T05:20:32.556Z,31.4
2018-09-04T05:21:22.616Z,31.5
2018-09-04T05:22:12.796Z,31.4
2018-09-04T05:23:03.051Z,31.4
2018-09-04T05:23:52.598Z,31.4
2018-09-04T05:24:42.888Z,31.4
2018-09-04T05:25:33.509Z,31.4
2018-09-04T05:26:23.586Z,31.4
2018-09-04T05:27:12.843Z,31.4
2018-09-04T05:28:02.047Z,31.4
2018-09-04T05:28:54.306Z,31.4
2018-09-04T05:29:43.568Z,31.4
2018-09-04T05:30:33.643Z,31.4
2018-09-04T05:31:23.420Z,31.4
2018-09-04T05:32:13.303Z,31.4
2018-09-04T05:33:02.745Z,31.4
2018-09-04T05:33:53.955Z,31.4
2018-09-04T05:34:43.652Z,31.4
2018-09-04T05:35:34.000Z,31.4
2018-09-04T05:36:24.312Z,31.4
2018-09-04T05:37:13.600Z,31.4
2018-09-04T05:38:04.197Z,31.4
2018-09-04T05:38:54.797Z,31.4
2018-09-04T05:39:44.019Z,31.4
2018-09-04T05:40:34.150Z,31.4
2018-09-04T05:41:23.323Z,31.4
2018-09-04T05:42:14.504Z,31.4
2018-09-04T05:43:04.902Z,31.4
2018-09-04T05:43:54.920Z,31.4
2018-09-04T05:44:44.508Z,31.4
2018-09-04T05:45:35.135Z,31.4
2018-09-04T05:46:24.864Z,31.4
2018-09-04T05:47:14.322Z,31.4
2018-09-04T05:48:04.382Z,31.4
2018-09-04T05:48:55.047Z,31.4
2018-09-04T05:49:45.042Z,31.4
2018-09-04T05:50:35.153Z,31.3
2018-09-04T05:51:24.092Z,31.4
2018-09-04T05:52:14.573Z,31.4
2018-09-04T05:53:05.634Z,31.3
2018-09-04T05:53:55.399Z,31.4
2018-09-04T05:54:45.466Z,31.3
2018-09-04T05:55:35.520Z,31.3
2018-09-04T05:56:25.598Z,31.4
2018-09-04T05:57:15.626Z,31.3
2018-09-04T05:58:05.270Z,31.3
2018-09-04T05:58:55.243Z,31.3
2018-09-04T05:59:45.863Z,31.3
2018-09-04T06:00:35.950Z,31.3
2018-09-04T06:01:26.288Z,31.3
2018-09-04T06:02:16.353Z,31.3
2018-09-04T06:03:05.820Z,31.3
2018-09-04T06:03:56.484Z,31.3
2018-09-04T06:04:45.955Z,31.3
2018-09-04T06:05:36.312Z,31.3
2018-09-04T06:06:25.786Z,31.3
2018-09-04T06:07:16.175Z,31.3
2018-09-04T06:08:06.515Z,31.3
2018-09-04T06:08:56.004Z,31.3
2018-09-04T06:09:46.371Z,31.3
2018-09-04T06:10:36.685Z,31.3
2018-09-04T06:11:27.041Z,31.3
2018-09-04T06:12:16.782Z,31.3
2018-09-04T06:13:07.236Z,31.3
2018-09-04T06:13:56.797Z,31.3
2018-09-04T06:14:47.533Z,31.3
2018-09-04T06:15:36.816Z,31.3
2018-09-04T06:16:26.091Z,31.3
2018-09-04T06:17:17.208Z,31.3
2018-09-04T06:18:06.974Z,31.3
2018-09-04T06:18:56.808Z,31.3
2018-09-04T06:19:47.651Z,31.3
2018-09-04T06:20:37.515Z,31.3
2018-09-04T06:21:27.520Z,31.3
2018-09-04T06:22:17.293Z,31.3
2018-09-04T06:23:08.012Z,31.3
2018-09-04T06:23:57.443Z,31.3
2018-09-04T06:24:48.076Z,31.3
2018-09-04T06:25:38.180Z,31.3
2018-09-04T06:26:28.226Z,31.3
2018-09-04T06:27:17.421Z,31.3
2018-09-04T06:28:08.316Z,31.3
2018-09-04T06:28:57.876Z,31.3
2018-09-04T06:29:48.003Z,31.3
2018-09-04T06:30:38.033Z,31.3
2018-09-04T06:31:28.868Z,31.3
2018-09-04T06:32:18.383Z,31.3
2018-09-04T06:33:09.101Z,31.3
2018-09-04T06:33:58.489Z,31.3
2018-09-04T06:34:47.700Z,31.3
2018-09-04T06:35:39.270Z,31.3
2018-09-04T06:36:29.493Z,31.3
2018-09-04T06:37:19.038Z,31.3
2018-09-04T06:38:09.123Z,31.3
2018-09-04T06:38:58.641Z,31.3
2018-09-04T06:39:48.391Z,31.2
2018-09-04T06:40:38.372Z,31.3
2018-09-04T06:41:29.121Z,31.3
2018-09-04T06:42:19.421Z,31.3
2018-09-04T06:43:08.901Z,31.2
2018-09-04T06:43:57.989Z,31.3
2018-09-04T06:44:48.842Z,31.2
2018-09-04T06:45:39.241Z,31.3
2018-09-04T06:46:29.580Z,31.2
2018-09-04T06:47:19.075Z,31.2
2018-09-04T06:48:09.405Z,31.2
2018-09-04T06:48:58.931Z,31.2
2018-09-04T06:49:49.248Z,31.2
2018-09-04T06:50:39.555Z,31.2
2018-09-04T06:51:29.828Z,31.2
2018-09-04T06:52:19.115Z,31.2
2018-09-04T06:53:10.001Z,31.2
2018-09-04T06:53:59.735Z,31.2
2018-09-04T06:54:50.008Z,31.2
2018-09-04T06:55:40.161Z,31.2
2018-09-04T06:56:29.980Z,31.2
2018-09-04T06:57:20.594Z,31.2
2018-09-04T06:58:09.775Z,31.2
2018-09-04T06:59:00.140Z,31.2
2018-09-04T06:59:50.755Z,31.2
2018-09-04T07:00:40.537Z,31.2
2018-09-04T07:01:30.051Z,31.2
2018-09-04T07:02:19.313Z,31.1
2018-09-04T07:03:10.740Z,31.2
2018-09-04T07:04:00.840Z,31.2
2018-09-04T07:04:50.917Z,31.1
2018-09-04T07:05:40.440Z,31.1
2018-09-04T07:06:30.246Z,31.2
2018-09-04T07:07:20.254Z,31.2
2018-09-04T07:08:10.347Z,31.1
2018-09-04T07:09:01.012Z,31.1
2018-09-04T07:09:51.120Z,31.1
2018-09-04T07:10:40.840Z,31.1
2018-09-04T07:11:31.155Z,31.1
2018-09-04T07:12:20.959Z,31.1
2018-09-04T07:13:11.349Z,31.1
2018-09-04T07:14:01.861Z,31.1
2018-09-04T07:14:51.929Z,31.1
2018-09-04T07:15:41.771Z,31.1
2018-09-04T07:16:32.027Z,31.1
2018-09-04T07:17:22.138Z,31.1
2018-09-04T07:18:11.627Z,31.1
2018-09-04T07:19:02.309Z,31.1
2018-09-04T07:19:52.085Z,31.1
2018-09-04T07:20:42.081Z,31.1
2018-09-04T07:21:32.165Z,31.1
2018-09-04T07:22:22.516Z,31.1
2018-09-04T07:23:12.293Z,31.1
2018-09-04T07:24:03.296Z,31.1
2018-09-04T07:24:52.770Z,31.1
2018-09-04T07:25:42.484Z,31.1
2018-09-04T07:26:33.076Z,31.1
2018-09-04T07:27:21.828Z,31.1
2018-09-04T07:28:12.521Z,31.1
2018-09-04T07:29:01.908Z,31.1
2018-09-04T07:29:53.086Z,31.1
2018-09-04T07:30:42.287Z,31.1
2018-09-04T07:31:33.000Z,31.1
2018-09-04T07:32:23.000Z,31.1
2018-09-04T07:33:13.340Z,31.1
2018-09-04T07:34:03.136Z,31.1
2018-09-04T07:34:53.185Z,31.1
2018-09-04T07:35:42.965Z,31.1
2018-09-04T07:36:34.173Z,31.1
2018-09-04T07:37:23.088Z,31
2018-09-04T07:38:13.731Z,31.1
2018-09-04T07:39:03.785Z,31.1
2018-09-04T07:39:53.874Z,31.1
2018-09-04T07:40:43.968Z,31
2018-09-04T07:41:34.103Z,31
2018-09-04T07:42:23.479Z,31
2018-09-04T07:43:13.858Z,31
2018-09-04T07:44:03.092Z,31
2018-09-04T07:44:53.358Z,31
2018-09-04T07:45:44.020Z,31.1
2018-09-04T07:46:33.832Z,31
2018-09-04T07:47:23.877Z,31
2018-09-04T07:48:14.556Z,31.1
2018-09-04T07:49:03.751Z,31
2018-09-04T07:49:54.392Z,31
2018-09-04T07:50:44.389Z,31
2018-09-04T07:51:34.443Z,32.2
2018-09-04T07:52:24.840Z,37.5
2018-09-04T07:53:14.603Z,38.3
2018-09-04T07:54:04.629Z,41.2
2018-09-04T07:54:54.707Z,43
2018-09-04T07:55:45.307Z,43.6
2018-09-04T07:56:35.158Z,43.1
2018-09-04T07:57:24.651Z,42.4
2018-09-04T07:58:15.282Z,41.9
2018-09-04T07:59:05.362Z,41.6
2018-09-04T07:59:55.056Z,41.3
2018-09-04T08:00:44.551Z,41.1
2018-09-04T08:01:35.516Z,40.8
2018-09-04T08:02:25.021Z,40.6
2018-09-04T08:03:14.580Z,40.3
2018-09-04T08:04:04.938Z,40.1
2018-09-04T08:04:54.420Z,39.9
2018-09-04T08:05:44.181Z,39.7
2018-09-04T08:06:35.437Z,40.6
2018-09-04T08:07:25.745Z,42.1
2018-09-04T08:08:14.971Z,43.1
2018-09-04T08:09:04.473Z,45.4
2018-09-04T08:09:54.942Z,46.6
2018-09-04T08:10:45.468Z,47.1
2018-09-04T08:11:36.013Z,47.2
2018-09-04T08:12:26.859Z,47.1
2018-09-04T08:13:16.433Z,47.1
2018-09-04T08:14:06.494Z,47.3
2018-09-04T08:14:55.736Z,47.4
2018-09-04T08:15:46.343Z,47.4
2018-09-04T08:16:36.717Z,47.4
2018-09-04T08:17:26.410Z,47.3
2018-09-04T08:18:16.244Z,47.3
2018-09-04T08:19:06.626Z,47.4
2018-09-04T08:19:56.335Z,47.9
2018-09-04T08:20:47.688Z,48.2
2018-09-04T08:21:37.107Z,48.5
2018-09-04T08:22:26.577Z,48.7
2018-09-04T09:15:01.489Z,57.2
2018-09-04T09:16:41.663Z,57.4
2018-09-04T09:17:31.261Z,57.5
2018-09-04T09:18:22.607Z,57.6
2018-09-04T09:19:12.169Z,57.6
2018-09-04T09:20:01.693Z,57.7
2018-09-04T09:20:51.961Z,57.8
2018-09-04T09:21:42.058Z,57.9
2018-09-04T09:22:32.068Z,57.9
2018-09-04T09:23:22.978Z,58.1
2018-09-04T09:24:12.212Z,58.1
2018-09-04T09:25:02.814Z,58.3
2018-09-04T09:25:53.115Z,58.3
2018-09-04T09:26:42.921Z,58.4
2018-09-04T09:27:32.234Z,58.4
2018-09-04T09:29:12.263Z,58.6
2018-09-04T09:30:02.975Z,58.7
2018-09-04T09:30:52.731Z,58.8
2018-09-04T09:31:43.101Z,58.8
2018-09-04T09:32:32.623Z,58.9
2018-09-04T09:33:22.916Z,58.9
2018-09-04T09:34:13.523Z,59
2018-09-04T09:35:03.441Z,59.1
2018-09-04T09:35:52.865Z,59.2
2018-09-04T09:36:44.874Z,59.3
2018-09-04T09:37:33.553Z,59.3
2018-09-04T09:38:23.308Z,59.4
2018-09-04T09:39:13.343Z,59.4
2018-09-04T09:40:03.499Z,59.5
2018-09-04T09:40:52.083Z,59.6
2018-09-04T09:41:43.510Z,59.7
2018-09-04T09:42:33.865Z,59.8
2018-09-04T09:43:23.968Z,59.8
2018-09-04T09:44:13.599Z,59.9
2018-09-04T09:45:04.388Z,59.9
2018-09-04T09:45:53.942Z,60
2018-09-04T09:46:43.418Z,60.1
2018-09-04T09:47:34.594Z,60.3
2018-09-04T09:48:24.095Z,60.2
2018-09-04T09:49:14.480Z,60.3
2018-09-04T09:50:03.482Z,60.4
2018-09-04T09:50:55.614Z,60.5
2018-09-04T09:51:44.361Z,60.6
2018-09-04T09:52:35.521Z,60.6
2018-09-04T09:53:27.896Z,60.6
2018-09-04T09:54:14.865Z,60.7
2018-09-04T09:55:04.934Z,60.8
2018-09-04T09:55:55.112Z,60.9
2018-09-04T09:56:45.244Z,60.9
2018-09-04T09:57:34.643Z,61
2018-09-04T09:58:23.887Z,61.1
2018-09-04T09:59:15.224Z,61.2
2018-09-04T10:00:06.456Z,61.3
2018-09-04T10:00:55.991Z,61.4
2018-09-04T10:01:45.329Z,61.4
2018-09-04T10:02:35.381Z,61.4
2018-09-04T10:03:25.616Z,61.5
2018-09-04T10:04:16.710Z,61.6
2018-09-04T10:05:05.681Z,61.6
2018-09-04T10:05:55.102Z,61.7
2018-09-04T10:06:45.834Z,61.8
2018-09-04T10:07:36.535Z,61.9
2018-09-04T10:08:26.040Z,62
2018-09-04T10:09:15.216Z,62.1
2018-09-04T10:10:06.518Z,62
2018-09-04T10:10:55.321Z,62.2
2018-09-04T10:11:45.861Z,62.2
2018-09-04T10:12:35.618Z,62.3
2018-09-04T10:13:25.938Z,62.4
2018-09-04T10:14:16.294Z,62.4
2018-09-04T10:15:21.840Z,62.5
2018-09-04T10:15:55.893Z,62.6
2018-09-04T10:16:46.474Z,62.6
2018-09-04T10:17:36.594Z,62.7
2018-09-04T10:18:26.333Z,62.7
2018-09-04T10:19:15.874Z,62.8
2018-09-04T10:20:06.590Z,62.9
2018-09-04T10:20:57.100Z,62.9
2018-09-04T10:21:46.644Z,63.1
2018-09-04T10:22:36.675Z,63.1
2018-09-04T10:23:26.546Z,63.1
2018-09-04T10:24:16.605Z,63.2
2018-09-04T10:25:06.610Z,63.3
2018-09-04T10:25:57.547Z,63.4
2018-09-04T10:26:47.560Z,63.4
2018-09-04T10:27:37.615Z,63.4
2018-09-04T10:28:27.478Z,63.5
2018-09-04T10:29:31.847Z,63.6
2018-09-04T10:30:07.305Z,63.6
2018-09-04T10:30:57.032Z,63.8
2018-09-04T10:31:47.050Z,63.8
2018-09-04T10:32:37.442Z,63.8
2018-09-04T10:33:27.019Z,63.9
2018-09-04T10:34:17.318Z,63.9
2018-09-04T10:35:07.394Z,64
2018-09-04T10:35:57.653Z,64
2018-09-04T10:36:48.039Z,64.1
2018-09-04T10:37:54.372Z,64.2
2018-09-04T16:15:53.519Z,42.6
2018-09-04T16:16:43.561Z,42.6
2018-09-04T16:17:33.644Z,42.5
2018-09-04T16:18:23.747Z,42.4
2018-09-04T16:19:14.179Z,42.4
2018-09-04T16:20:05.056Z,42.4
2018-09-04T16:20:56.131Z,42.4
2018-09-04T16:21:45.660Z,42.3
2018-09-04T16:22:34.856Z,42.3
2018-09-04T16:23:24.661Z,42.2
2018-09-04T16:24:14.903Z,42.2
2018-09-04T16:25:05.616Z,42.2
2018-09-04T16:25:54.595Z,42.1
2018-09-04T16:26:59.734Z,42.1
2018-09-04T16:27:36.751Z,42.1
2018-09-04T16:28:25.498Z,42.1
2018-09-04T16:29:16.637Z,42
2018-09-04T16:30:21.269Z,42
2018-09-04T16:30:56.567Z,41.9
2018-09-04T16:31:45.509Z,41.9
2018-09-04T16:32:36.386Z,41.9
2018-09-04T16:33:25.953Z,41.8
2018-09-04T16:34:17.616Z,41.8
2018-09-04T16:35:07.717Z,41.8
2018-09-04T16:35:56.343Z,41.7
2018-09-04T16:37:01.200Z,41.7
2018-09-04T16:37:38.153Z,41.6
2018-09-04T16:38:26.649Z,41.6
2018-09-04T16:39:16.007Z,41.6
2018-09-04T16:40:06.047Z,41.6
2018-09-04T16:40:57.456Z,41.5
2018-09-04T16:41:46.408Z,41.4
2018-09-04T16:42:37.586Z,41.4
2018-09-04T16:43:26.232Z,41.4
2018-09-04T16:44:31.154Z,41.4
2018-09-04T16:45:06.953Z,41.3
2018-09-04T16:45:56.475Z,41.3
2018-09-04T16:46:47.359Z,41.3
2018-09-04T16:47:36.866Z,41.3
2018-09-04T16:48:42.227Z,41.2
2018-09-04T16:49:31.511Z,41.1
2018-09-04T16:50:07.028Z,41.1
2018-09-04T16:51:12.141Z,41.1
2018-09-04T16:51:48.196Z,41.1
2018-09-04T16:52:38.049Z,41
2018-09-04T16:53:27.540Z,41
2018-09-04T16:54:18.137Z,40.9
2018-09-04T16:55:08.371Z,40.9
2018-09-04T16:55:56.948Z,40.9
2018-09-04T16:56:47.314Z,40.9
2018-09-04T16:57:38.460Z,40.8
2018-09-04T16:58:28.453Z,40.8
2018-09-04T16:59:17.191Z,40.8
2018-09-04T17:00:08.574Z,40.8
2018-09-04T17:00:57.625Z,40.7
2018-09-04T17:01:49.062Z,40.7
2018-09-04T17:02:38.256Z,40.6
2018-09-04T17:03:28.402Z,40.6
2018-09-04T17:04:33.343Z,40.5
2018-09-04T17:05:09.546Z,40.4
2018-09-04T17:05:58.756Z,40.3
2018-09-04T17:06:48.085Z,40.2
2018-09-04T17:07:39.160Z,40
2018-09-04T17:08:29.570Z,39.9
2018-09-04T17:09:18.718Z,39.8
2018-09-04T17:10:08.318Z,39.6
2018-09-04T17:10:58.986Z,39.5
2018-09-04T17:11:48.911Z,39.4
2018-09-04T17:12:39.323Z,39.3
2018-09-04T17:13:28.907Z,39.2
2018-09-04T17:14:19.347Z,39.1
2018-09-04T17:15:08.941Z,39
2018-09-04T17:16:13.646Z,38.9
2018-09-04T17:16:48.838Z,38.8
2018-09-04T17:17:54.615Z,38.8
2018-09-04T17:18:28.928Z,38.7
2018-09-04T17:19:20.012Z,38.6
2018-09-04T17:20:09.400Z,38.5
2018-09-04T17:20:59.516Z,38.5
2018-09-04T17:21:50.614Z,38.4
2018-09-04T17:22:39.575Z,38.4
2018-09-04T17:23:30.855Z,38.3
2018-09-04T17:24:19.983Z,38.2
2018-09-04T17:25:10.457Z,38.2
2018-09-04T17:26:00.438Z,38.2
2018-09-04T17:27:04.560Z,38.1
2018-09-04T17:27:39.696Z,38.1
2018-09-04T17:28:31.302Z,38.1
2018-09-04T17:29:21.142Z,38
2018-09-04T17:30:10.415Z,37.9
2018-09-04T17:31:01.602Z,37.9
2018-09-04T17:32:05.719Z,37.9
2018-09-04T17:32:41.584Z,37.8
2018-09-04T17:33:29.663Z,37.8
2018-09-04T17:34:19.071Z,37.8
2018-09-04T17:35:09.474Z,37.8
2018-09-04T17:35:59.806Z,37.7
2018-09-04T17:36:49.855Z,37.6
2018-09-04T17:37:39.871Z,37.6
2018-09-04T17:38:29.956Z,37.5
2018-09-04T17:39:20.044Z,37.5
2018-09-04T17:40:24.469Z,37.4
2018-09-04T17:40:59.628Z,37.3
2018-09-04T17:41:50.523Z,37.3
2018-09-04T17:42:40.529Z,37.1
2018-09-04T17:43:30.061Z,37.1
2018-09-04T17:44:19.839Z,36.9
2018-09-04T17:45:10.204Z,36.9
2018-09-04T17:45:59.716Z,36.8
2018-09-04T17:46:50.331Z,36.6
2018-09-04T17:47:41.591Z,36.6
2018-09-04T17:48:30.554Z,36.4
2018-09-04T17:49:21.893Z,36.3
2018-09-04T17:50:10.637Z,36.2
2018-09-04T17:51:01.237Z,36.1
2018-09-04T17:51:50.725Z,35.9
2018-09-04T17:52:41.103Z,35.9
2018-09-04T17:53:30.883Z,35.8
2018-09-04T17:54:21.768Z,35.7
2018-09-04T17:55:11.305Z,35.6
2018-09-04T17:56:01.367Z,35.5
2018-09-04T17:56:51.130Z,35.4
2018-09-04T17:57:40.633Z,35.3
2018-09-04T17:58:31.543Z,35.2
2018-09-04T17:59:21.632Z,35.1
2018-09-04T18:00:11.668Z,35.1
2018-09-04T18:01:02.997Z,34.9
2018-09-04T18:01:51.515Z,34.9
2018-09-04T18:02:41.827Z,34.8
2018-09-04T18:03:31.940Z,34.8
2018-09-04T18:04:21.438Z,34.7
2018-09-04T18:05:11.813Z,34.6
2018-09-04T18:06:02.444Z,34.6
2018-09-04T18:06:51.640Z,34.5
2018-09-04T18:07:42.304Z,34.4
2018-09-04T18:08:32.372Z,34.4
2018-09-04T18:09:21.947Z,34.3
2018-09-04T18:10:12.523Z,34.3
2018-09-04T18:11:01.759Z,34.3
2018-09-04T18:11:52.707Z,34.2
2018-09-04T18:12:43.020Z,34.1
2018-09-04T18:13:33.147Z,34.1
2018-09-04T18:14:22.865Z,34.1
2018-09-04T18:15:12.433Z,34